South Gouldsboro, Maine
Current Conditions -  °F | °C
As of 1:35 AM on Wednesday 28 Jan 2015 (Local Time) from KBHB Reporting Station
Overcast Overcast  
Wind Chill: -5°   Ceiling: 2100
Heat Index: 12°   Visibility: 5mi
Dew Point: 10°   Wind: 18mph
Humidity: 92%   Direction: 10°N
Pressure: 29.55"   Gusts: 26mph
Location:  44.4783°N, 68.0685°W
Report Text: KBHB 280635Z 01016G23KT 5SM BKN021 OVC033 M11/M12 A2955 RMK AO1
Loading
Personal Weather Stations






























Interactive Weather Map New forecast layout! Learn more

10-Day Weather Forecast

Advertisements
Track Severe Weather on mobile